createdAt,value
2023-01-17T00:00:27.422Z,965.29
2023-01-17T00:01:27.389Z,965.43
2023-01-17T00:02:27.383Z,965.36
2023-01-17T00:03:27.377Z,965.31
2023-01-17T00:04:27.342Z,965.41
2023-01-17T00:05:27.353Z,965.46
2023-01-17T00:06:27.298Z,965.50
2023-01-17T00:07:27.365Z,965.49
2023-01-17T00:08:27.271Z,965.37
2023-01-17T00:09:27.264Z,965.46
2023-01-17T00:10:27.303Z,965.50
2023-01-17T00:11:27.234Z,965.47
2023-01-17T00:12:27.232Z,965.55
2023-01-17T00:13:27.245Z,965.50
2023-01-17T00:14:27.219Z,965.64
2023-01-17T00:15:27.199Z,965.68
2023-01-17T00:16:27.196Z,965.57
2023-01-17T00:17:27.194Z,965.64
2023-01-17T00:18:27.240Z,965.67
2023-01-17T00:19:27.176Z,965.66
2023-01-17T00:20:27.145Z,965.70
2023-01-17T00:21:27.137Z,965.66
2023-01-17T00:22:27.117Z,965.72
2023-01-17T00:23:27.106Z,965.72
2023-01-17T00:24:27.105Z,965.74
2023-01-17T00:25:27.106Z,965.74
2023-01-17T00:26:27.078Z,965.79
2023-01-17T00:27:27.085Z,965.84
2023-01-17T00:28:27.064Z,965.78
2023-01-17T00:29:27.039Z,965.93
2023-01-17T00:30:27.047Z,965.92
2023-01-17T00:31:27.042Z,966.04
2023-01-17T00:32:27.001Z,966.00
2023-01-17T00:33:26.991Z,966.10
2023-01-17T00:34:26.988Z,966.15
2023-01-17T00:35:26.971Z,966.22
2023-01-17T00:36:26.971Z,966.18
2023-01-17T00:37:26.964Z,966.22
2023-01-17T00:38:26.934Z,966.27
2023-01-17T00:39:26.937Z,966.28
2023-01-17T00:40:26.916Z,966.40
2023-01-17T00:41:26.943Z,966.40
2023-01-17T00:42:26.877Z,966.40
2023-01-17T00:43:26.875Z,966.39
2023-01-17T00:44:26.868Z,966.43
2023-01-17T00:45:26.848Z,966.47
2023-01-17T00:46:26.877Z,966.49
2023-01-17T00:47:26.848Z,966.43
2023-01-17T00:48:26.818Z,966.58
2023-01-17T00:49:26.827Z,966.60
2023-01-17T00:50:26.797Z,966.58
2023-01-17T00:51:26.832Z,966.53
2023-01-17T00:52:26.847Z,966.50
2023-01-17T00:53:26.758Z,966.53
2023-01-17T00:54:26.765Z,966.51
2023-01-17T00:55:26.740Z,966.55
2023-01-17T00:56:26.759Z,966.59
2023-01-17T00:57:26.719Z,966.66
2023-01-17T00:58:26.736Z,966.71
2023-01-17T00:59:26.698Z,966.69
2023-01-17T01:00:26.709Z,966.73
2023-01-17T01:01:26.767Z,966.76
2023-01-17T01:02:28.493Z,966.76
2023-01-17T01:03:26.690Z,966.78
2023-01-17T01:04:26.639Z,966.74
2023-01-17T01:05:26.623Z,966.76
2023-01-17T01:06:26.623Z,966.69
2023-01-17T01:07:26.635Z,966.76
2023-01-17T01:08:26.590Z,966.78
2023-01-17T01:09:26.599Z,966.86
2023-01-17T01:10:26.585Z,966.76
2023-01-17T01:11:26.570Z,966.77
2023-01-17T01:12:26.555Z,966.90
2023-01-17T01:13:26.551Z,966.85
2023-01-17T01:14:26.556Z,966.87
2023-01-17T01:15:26.512Z,966.89
2023-01-17T01:16:26.528Z,966.87
2023-01-17T01:17:26.500Z,966.94
2023-01-17T01:18:26.498Z,966.97
2023-01-17T01:19:26.471Z,966.96
2023-01-17T01:20:26.483Z,966.89
2023-01-17T01:21:26.455Z,966.96
2023-01-17T01:22:26.443Z,967.04
2023-01-17T01:23:26.421Z,967.11
2023-01-17T01:24:26.410Z,966.98
2023-01-17T01:25:26.452Z,967.05
2023-01-17T01:26:26.404Z,967.03
2023-01-17T01:27:26.397Z,967.08
2023-01-17T01:28:26.371Z,967.02
2023-01-17T01:29:26.361Z,967.04
2023-01-17T01:30:26.382Z,966.99
2023-01-17T01:31:26.391Z,967.06
2023-01-17T01:32:26.326Z,967.11
2023-01-17T01:33:26.316Z,967.12
2023-01-17T01:34:26.302Z,967.11
2023-01-17T01:35:26.316Z,967.15
2023-01-17T01:36:26.318Z,967.22
2023-01-17T01:37:26.282Z,967.19
2023-01-17T01:38:26.266Z,967.14
2023-01-17T01:39:26.253Z,967.21
2023-01-17T01:40:26.251Z,967.24
2023-01-17T01:41:26.236Z,967.24
2023-01-17T01:42:26.223Z,967.22
2023-01-17T01:43:26.214Z,967.30
2023-01-17T01:44:26.183Z,967.28
2023-01-17T01:45:26.231Z,967.22
2023-01-17T01:46:26.182Z,967.20
2023-01-17T01:47:26.194Z,967.25
2023-01-17T01:48:26.134Z,967.29
2023-01-17T01:49:26.151Z,967.20
2023-01-17T01:50:26.125Z,967.37
2023-01-17T01:51:26.114Z,967.30
2023-01-17T01:52:26.095Z,967.30
2023-01-17T01:53:26.121Z,967.37
2023-01-17T01:54:26.074Z,967.35
2023-01-17T01:55:26.068Z,967.44
2023-01-17T01:56:26.054Z,967.43
2023-01-17T01:57:26.043Z,967.37
2023-01-17T01:58:26.068Z,967.32
2023-01-17T01:59:26.027Z,967.42
2023-01-17T02:00:26.004Z,967.47
2023-01-17T02:01:26.076Z,967.49
2023-01-17T02:02:25.986Z,967.49
2023-01-17T02:03:26.007Z,967.53
2023-01-17T02:04:26.030Z,967.53
2023-01-17T02:05:25.955Z,967.59
2023-01-17T02:06:25.978Z,967.61
2023-01-17T02:07:25.938Z,967.56
2023-01-17T02:08:25.935Z,967.55
2023-01-17T02:09:25.935Z,967.61
2023-01-17T02:10:25.905Z,967.65
2023-01-17T02:11:25.891Z,967.58
2023-01-17T02:12:25.874Z,967.66
2023-01-17T02:13:25.877Z,967.64
2023-01-17T02:14:25.847Z,967.71
2023-01-17T02:15:25.877Z,967.65
2023-01-17T02:16:25.841Z,967.67
2023-01-17T02:17:25.826Z,967.65
2023-01-17T02:18:25.816Z,967.67
2023-01-17T02:19:25.792Z,967.69
2023-01-17T02:20:25.808Z,967.81
2023-01-17T02:21:25.792Z,967.75
2023-01-17T02:22:25.755Z,967.62
2023-01-17T02:23:25.747Z,967.77
2023-01-17T02:24:25.731Z,967.87
2023-01-17T02:25:25.734Z,967.86
2023-01-17T02:26:25.738Z,967.82
2023-01-17T02:27:25.705Z,967.84
2023-01-17T02:28:25.730Z,967.80
2023-01-17T02:29:25.679Z,967.88
2023-01-17T02:30:25.663Z,967.85
2023-01-17T02:31:25.665Z,967.88
2023-01-17T02:32:25.683Z,967.77
2023-01-17T02:33:25.635Z,967.78
2023-01-17T02:34:25.632Z,967.78
2023-01-17T02:35:25.621Z,967.69
2023-01-17T02:36:25.591Z,967.84
2023-01-17T02:37:25.591Z,967.78
2023-01-17T02:38:25.588Z,967.86
2023-01-17T02:39:25.558Z,967.90
2023-01-17T02:40:25.551Z,967.88
2023-01-17T02:41:25.539Z,967.96
2023-01-17T02:42:25.533Z,967.99
2023-01-17T02:43:25.549Z,967.99
2023-01-17T02:44:25.498Z,968.01
2023-01-17T02:45:25.497Z,968.00
2023-01-17T02:46:25.500Z,967.98
2023-01-17T02:47:25.500Z,967.93
2023-01-17T02:48:25.462Z,968.12
2023-01-17T02:49:25.467Z,968.00
2023-01-17T02:50:25.446Z,968.06
2023-01-17T02:51:25.424Z,968.11
2023-01-17T02:52:25.410Z,967.98
2023-01-17T02:53:25.399Z,968.12
2023-01-17T02:54:25.402Z,968.15
2023-01-17T02:55:25.409Z,968.14
2023-01-17T02:56:25.362Z,968.16
2023-01-17T02:57:25.349Z,968.17
2023-01-17T02:58:25.361Z,968.16
2023-01-17T02:59:25.331Z,968.18
2023-01-17T03:00:25.320Z,968.21
2023-01-17T03:01:25.418Z,968.09
2023-01-17T03:02:25.365Z,968.16
2023-01-17T03:03:25.281Z,968.28
2023-01-17T03:04:25.277Z,968.26
2023-01-17T03:05:25.262Z,968.30
2023-01-17T03:06:25.270Z,968.27
2023-01-17T03:07:25.250Z,968.28
2023-01-17T03:08:25.228Z,968.32
2023-01-17T03:09:25.229Z,968.30
2023-01-17T03:10:25.201Z,968.44
2023-01-17T03:11:25.203Z,968.34
2023-01-17T03:12:25.246Z,968.39
2023-01-17T03:13:25.189Z,968.30
2023-01-17T03:14:25.359Z,968.39
2023-01-17T03:15:25.143Z,968.48
2023-01-17T03:16:25.166Z,968.42
2023-01-17T03:17:25.138Z,968.42
2023-01-17T03:18:25.125Z,968.47
2023-01-17T03:19:25.102Z,968.51
2023-01-17T03:20:25.079Z,968.44
2023-01-17T03:21:25.074Z,968.46
2023-01-17T03:22:25.073Z,968.50
2023-01-17T03:23:25.074Z,968.55
2023-01-17T03:24:25.039Z,968.54
2023-01-17T03:25:25.047Z,968.56
2023-01-17T03:26:25.007Z,968.66
2023-01-17T03:27:25.006Z,968.59
2023-01-17T03:28:25.007Z,968.61
2023-01-17T03:29:25.003Z,968.67
2023-01-17T03:30:25.033Z,968.61
2023-01-17T03:31:24.953Z,968.63
2023-01-17T03:32:24.933Z,968.60
2023-01-17T03:33:24.934Z,968.64
2023-01-17T03:34:24.926Z,968.63
2023-01-17T03:35:24.942Z,968.62
2023-01-17T03:36:24.904Z,968.67
2023-01-17T03:37:24.921Z,968.58
2023-01-17T03:38:24.875Z,968.65
2023-01-17T03:39:24.864Z,968.64
2023-01-17T03:40:24.891Z,968.66
2023-01-17T03:41:24.873Z,968.61
2023-01-17T03:42:24.824Z,968.70
2023-01-17T03:43:24.829Z,968.73
2023-01-17T03:44:24.834Z,968.70
2023-01-17T03:45:24.795Z,968.70
2023-01-17T03:46:24.808Z,968.74
2023-01-17T03:47:24.764Z,968.77
2023-01-17T03:48:24.759Z,968.75
2023-01-17T03:49:24.749Z,968.80
2023-01-17T03:50:24.738Z,968.79
2023-01-17T03:51:24.761Z,968.79
2023-01-17T03:52:24.726Z,968.77
2023-01-17T03:53:24.706Z,968.84
2023-01-17T03:54:24.700Z,968.86
2023-01-17T03:55:24.675Z,968.82
2023-01-17T03:56:24.681Z,968.84
2023-01-17T03:57:24.656Z,968.88
2023-01-17T03:58:27.289Z,968.85
2023-01-17T03:59:24.626Z,968.86
2023-01-17T04:00:24.608Z,968.93
2023-01-17T04:01:24.697Z,968.89
2023-01-17T04:02:24.674Z,968.89
2023-01-17T04:03:24.609Z,968.85
2023-01-17T04:04:24.581Z,968.91
2023-01-17T04:05:24.567Z,968.90
2023-01-17T04:06:24.549Z,968.89
2023-01-17T04:07:24.546Z,968.89
2023-01-17T04:08:24.520Z,968.87
2023-01-17T04:09:24.535Z,968.81
2023-01-17T04:10:24.501Z,968.88
2023-01-17T04:11:24.491Z,968.85
2023-01-17T04:12:24.499Z,968.80
2023-01-17T04:13:24.457Z,968.79
2023-01-17T04:14:24.474Z,968.82
2023-01-17T04:15:24.463Z,968.77
2023-01-17T04:16:24.464Z,968.84
2023-01-17T04:17:24.427Z,968.87
2023-01-17T04:18:24.402Z,968.86
2023-01-17T04:19:24.389Z,968.82
2023-01-17T04:20:24.410Z,968.86
2023-01-17T04:21:24.369Z,968.80
2023-01-17T04:22:24.376Z,968.80
2023-01-17T04:23:24.348Z,968.85
2023-01-17T04:24:24.367Z,968.96
2023-01-17T04:25:24.319Z,968.92
2023-01-17T04:26:24.349Z,968.97
2023-01-17T04:27:24.322Z,968.97
2023-01-17T04:28:24.301Z,968.99
2023-01-17T04:29:24.309Z,969.01
2023-01-17T04:30:24.273Z,969.03
2023-01-17T04:31:24.307Z,969.03
2023-01-17T04:32:24.260Z,969.06
2023-01-17T04:33:24.231Z,969.04
2023-01-17T04:34:24.230Z,969.10
2023-01-17T04:35:24.228Z,969.16
2023-01-17T04:36:24.201Z,969.10
2023-01-17T04:37:24.210Z,969.11
2023-01-17T04:38:24.207Z,969.11
2023-01-17T04:39:24.163Z,969.16
2023-01-17T04:40:24.149Z,969.18
2023-01-17T04:41:24.138Z,969.20
2023-01-17T04:42:24.133Z,969.19
2023-01-17T04:43:24.150Z,969.23
2023-01-17T04:44:24.109Z,969.19
2023-01-17T04:45:24.116Z,969.23
2023-01-17T04:46:24.129Z,969.20
2023-01-17T04:47:24.060Z,969.23
2023-01-17T04:48:24.075Z,969.30
2023-01-17T04:49:24.070Z,969.43
2023-01-17T04:50:24.046Z,969.42
2023-01-17T04:51:24.023Z,969.33
2023-01-17T04:52:24.011Z,969.34
2023-01-17T04:53:24.003Z,969.38
2023-01-17T04:54:24.000Z,969.46
2023-01-17T04:55:24.007Z,969.35
2023-01-17T04:56:24.090Z,969.38
2023-01-17T04:57:23.961Z,969.43
2023-01-17T04:58:23.942Z,969.44
2023-01-17T04:59:23.934Z,969.40
2023-01-17T05:00:24.312Z,969.45
2023-01-17T05:01:24.034Z,969.41
2023-01-17T05:02:23.936Z,969.47
2023-01-17T05:03:23.888Z,969.41
2023-01-17T05:04:23.884Z,969.37
2023-01-17T05:05:23.854Z,969.47
2023-01-17T05:06:23.903Z,969.49
2023-01-17T05:07:23.845Z,969.51
2023-01-17T05:08:23.832Z,969.45
2023-01-17T05:09:23.822Z,969.42
2023-01-17T05:10:23.819Z,969.50
2023-01-17T05:11:23.798Z,969.49
2023-01-17T05:12:24.012Z,969.49
2023-01-17T05:13:23.779Z,969.59
2023-01-17T05:14:23.764Z,969.53
2023-01-17T05:15:23.773Z,969.57
2023-01-17T05:16:23.722Z,969.57
2023-01-17T05:17:23.823Z,969.58
2023-01-17T05:18:23.712Z,969.62
2023-01-17T05:19:23.695Z,969.59
2023-01-17T05:20:23.685Z,969.65
2023-01-17T05:21:23.732Z,969.66
2023-01-17T05:22:23.664Z,969.67
2023-01-17T05:23:23.857Z,969.64
2023-01-17T05:24:23.650Z,969.63
2023-01-17T05:25:23.645Z,969.71
2023-01-17T05:26:23.613Z,969.72
2023-01-17T05:27:23.613Z,969.77
2023-01-17T05:28:23.599Z,969.77
2023-01-17T05:29:23.843Z,969.78
2023-01-17T05:30:23.576Z,969.79
2023-01-17T05:31:23.771Z,969.76
2023-01-17T05:32:23.605Z,969.77
2023-01-17T05:33:23.572Z,969.81
2023-01-17T05:34:23.603Z,969.81
2023-01-17T05:35:23.525Z,969.84
2023-01-17T05:36:23.521Z,969.85
2023-01-17T05:37:23.528Z,969.81
2023-01-17T05:38:23.507Z,969.84
2023-01-17T05:39:23.507Z,969.78
2023-01-17T05:40:23.518Z,969.84
2023-01-17T05:41:23.463Z,969.84
2023-01-17T05:42:23.448Z,969.86
2023-01-17T05:43:23.462Z,969.87
2023-01-17T05:44:23.441Z,969.87
2023-01-17T05:45:23.418Z,969.97
2023-01-17T05:46:23.589Z,969.94
2023-01-17T05:47:23.412Z,969.94
2023-01-17T05:48:23.416Z,969.90
2023-01-17T05:49:23.403Z,969.97
2023-01-17T05:50:23.362Z,969.93
2023-01-17T05:51:23.382Z,970.05
2023-01-17T05:52:23.365Z,969.99
2023-01-17T05:53:23.329Z,970.00
2023-01-17T05:54:23.326Z,970.02
2023-01-17T05:55:23.342Z,969.98
2023-01-17T05:56:23.317Z,969.96
2023-01-17T05:57:23.314Z,969.99
2023-01-17T05:58:23.294Z,969.96
2023-01-17T05:59:36.204Z,969.92
2023-01-17T06:00:24.253Z,969.97
2023-01-17T06:01:23.282Z,969.95
2023-01-17T06:02:23.282Z,969.98
2023-01-17T06:03:23.249Z,969.93
2023-01-17T06:04:23.248Z,969.92
2023-01-17T06:05:23.217Z,969.94
2023-01-17T06:06:23.181Z,969.94
2023-01-17T06:07:23.196Z,969.92
2023-01-17T06:08:23.191Z,969.93
2023-01-17T06:09:23.239Z,969.92
2023-01-17T06:10:23.160Z,969.92
2023-01-17T06:11:23.152Z,969.94
2023-01-17T06:12:23.128Z,969.95
2023-01-17T06:13:23.137Z,969.93
2023-01-17T06:14:23.131Z,969.95
2023-01-17T06:15:23.108Z,969.96
2023-01-17T06:16:23.241Z,970.02
2023-01-17T06:17:23.058Z,969.94
2023-01-17T06:18:23.152Z,969.95
2023-01-17T06:19:23.068Z,969.99
2023-01-17T06:20:23.086Z,970.02
2023-01-17T06:21:23.101Z,970.01
2023-01-17T06:22:23.020Z,970.01
2023-01-17T06:23:23.028Z,970.03
2023-01-17T06:24:22.991Z,969.95
2023-01-17T06:25:22.998Z,970.00
2023-01-17T06:26:23.025Z,969.90
2023-01-17T06:27:22.967Z,969.99
2023-01-17T06:28:22.955Z,970.01
2023-01-17T06:29:22.928Z,969.94
2023-01-17T06:30:22.946Z,970.03
2023-01-17T06:31:23.028Z,969.89
2023-01-17T06:32:22.962Z,970.00
2023-01-17T06:33:22.888Z,970.01
2023-01-17T06:34:22.900Z,969.96
2023-01-17T06:35:22.879Z,970.06
2023-01-17T06:36:22.847Z,970.01
2023-01-17T06:37:22.850Z,970.04
2023-01-17T06:38:22.896Z,970.06
2023-01-17T06:39:22.847Z,970.23
2023-01-17T06:40:22.841Z,970.21
2023-01-17T06:41:22.803Z,970.22
2023-01-17T06:42:23.727Z,970.25
2023-01-17T06:43:22.813Z,970.27
2023-01-17T06:44:22.780Z,970.28
2023-01-17T06:45:22.764Z,970.29
2023-01-17T06:46:22.831Z,970.34
2023-01-17T06:47:22.803Z,970.31
2023-01-17T06:48:22.758Z,970.30
2023-01-17T06:49:22.741Z,970.33
2023-01-17T06:50:22.703Z,970.37
2023-01-17T06:51:22.694Z,970.38
2023-01-17T06:52:22.722Z,970.43
2023-01-17T06:53:22.680Z,970.39
2023-01-17T06:54:22.713Z,970.39
2023-01-17T06:55:22.671Z,970.41
2023-01-17T06:56:22.636Z,970.44
2023-01-17T06:57:22.626Z,970.43
2023-01-17T06:58:22.620Z,970.39
2023-01-17T06:59:22.612Z,970.43
2023-01-17T07:00:22.647Z,970.42
2023-01-17T07:01:22.737Z,970.39
2023-01-17T07:02:22.584Z,970.32
2023-01-17T07:03:22.560Z,970.40
2023-01-17T07:04:22.576Z,970.35
2023-01-17T07:05:22.589Z,970.36
2023-01-17T07:06:22.521Z,970.38
2023-01-17T07:07:22.528Z,970.35
2023-01-17T07:08:22.539Z,970.32
2023-01-17T07:09:22.499Z,970.36
2023-01-17T07:10:22.501Z,970.28
2023-01-17T07:11:22.523Z,970.34
2023-01-17T07:12:22.463Z,970.33
2023-01-17T07:13:22.441Z,970.32
2023-01-17T07:14:22.451Z,970.30
2023-01-17T07:15:22.432Z,970.32
2023-01-17T07:16:22.484Z,970.31
2023-01-17T07:17:22.395Z,970.36
2023-01-17T07:18:22.389Z,970.30
2023-01-17T07:19:22.401Z,970.28
2023-01-17T07:20:22.381Z,970.30
2023-01-17T07:21:22.383Z,970.37
2023-01-17T07:22:22.368Z,970.30
2023-01-17T07:23:22.349Z,970.37
2023-01-17T07:24:22.338Z,970.30
2023-01-17T07:25:22.321Z,970.30
2023-01-17T07:26:22.303Z,970.31
2023-01-17T07:27:22.341Z,970.39
2023-01-17T07:28:22.291Z,970.36
2023-01-17T07:29:22.285Z,970.33
2023-01-17T07:30:22.270Z,970.35
2023-01-17T07:31:22.372Z,970.31
2023-01-17T07:32:22.267Z,970.32
2023-01-17T07:33:22.246Z,970.35
2023-01-17T07:34:22.218Z,970.28
2023-01-17T07:35:22.207Z,970.36
2023-01-17T07:36:22.190Z,970.32
2023-01-17T07:37:22.187Z,970.32
2023-01-17T07:38:22.216Z,970.30
2023-01-17T07:39:22.164Z,970.31
2023-01-17T07:40:22.156Z,970.30
2023-01-17T07:41:22.144Z,970.35
2023-01-17T07:42:23.974Z,970.30
2023-01-17T07:43:22.126Z,970.32
2023-01-17T07:44:22.132Z,970.30
2023-01-17T07:45:22.113Z,970.36
2023-01-17T07:46:22.124Z,970.29
2023-01-17T07:47:22.086Z,970.30
2023-01-17T07:48:22.067Z,970.23
2023-01-17T07:49:22.053Z,970.33
2023-01-17T07:50:22.081Z,970.31
2023-01-17T07:51:22.031Z,970.30
2023-01-17T07:52:22.007Z,970.30
2023-01-17T07:53:22.010Z,970.29
2023-01-17T07:54:21.998Z,970.26
2023-01-17T07:55:21.977Z,970.25
2023-01-17T07:56:21.985Z,970.26
2023-01-17T07:57:21.970Z,970.24
2023-01-17T07:58:21.980Z,970.18
2023-01-17T07:59:21.944Z,970.18
2023-01-17T08:00:21.929Z,970.18
2023-01-17T08:01:22.152Z,970.19
2023-01-17T08:02:21.896Z,970.22
2023-01-17T08:03:21.885Z,970.21
2023-01-17T08:04:21.879Z,970.16
2023-01-17T08:05:21.882Z,970.18
2023-01-17T08:06:21.859Z,970.18
2023-01-17T08:07:21.892Z,970.20
2023-01-17T08:08:21.837Z,970.16
2023-01-17T08:09:21.861Z,970.15
2023-01-17T08:10:21.848Z,970.15
2023-01-17T08:11:21.809Z,970.14
2023-01-17T08:12:21.803Z,970.17
2023-01-17T08:13:21.819Z,970.14
2023-01-17T08:14:21.758Z,970.12
2023-01-17T08:15:21.767Z,970.10
2023-01-17T08:16:21.798Z,970.16
2023-01-17T08:17:21.758Z,970.06
2023-01-17T08:18:21.869Z,970.06
2023-01-17T08:19:21.739Z,970.08
2023-01-17T08:20:21.727Z,970.02
2023-01-17T08:21:21.693Z,970.01
2023-01-17T08:22:21.676Z,970.07
2023-01-17T08:23:21.674Z,970.00
2023-01-17T08:24:21.688Z,969.96
2023-01-17T08:25:21.648Z,970.01
2023-01-17T08:26:21.655Z,970.08
2023-01-17T08:27:21.627Z,970.03
2023-01-17T08:28:21.634Z,970.00
2023-01-17T08:29:21.599Z,970.06
2023-01-17T08:30:21.610Z,970.01
2023-01-17T08:31:21.620Z,969.99
2023-01-17T08:32:21.567Z,970.00
2023-01-17T08:33:21.551Z,969.96
2023-01-17T08:34:21.540Z,969.97
2023-01-17T08:35:21.529Z,969.99
2023-01-17T08:36:21.569Z,969.97
2023-01-17T08:37:21.524Z,969.97
2023-01-17T08:38:21.518Z,969.93
2023-01-17T08:39:21.566Z,969.97
2023-01-17T08:40:21.574Z,970.02
2023-01-17T08:41:21.522Z,969.93
2023-01-17T08:42:21.487Z,969.93
2023-01-17T08:43:21.453Z,969.97
2023-01-17T08:44:21.431Z,969.93
2023-01-17T08:45:21.426Z,969.96
2023-01-17T08:46:21.415Z,969.99
2023-01-17T08:47:21.460Z,970.02
2023-01-17T08:48:21.389Z,970.01
2023-01-17T08:49:21.396Z,970.00
2023-01-17T08:50:21.380Z,969.95
2023-01-17T08:51:21.364Z,969.94
2023-01-17T08:52:21.347Z,969.94
2023-01-17T08:53:21.380Z,969.90
2023-01-17T08:54:21.320Z,969.86
2023-01-17T08:55:21.321Z,969.86
2023-01-17T08:56:21.312Z,969.90
2023-01-17T08:57:21.305Z,969.81
2023-01-17T08:58:21.283Z,969.86
2023-01-17T08:59:21.281Z,969.85
2023-01-17T09:00:21.263Z,969.86
2023-01-17T09:01:21.337Z,969.81
2023-01-17T09:02:21.246Z,969.81
2023-01-17T09:03:21.220Z,969.74
2023-01-17T09:04:21.284Z,969.80
2023-01-17T09:05:21.194Z,969.71
2023-01-17T09:06:21.199Z,969.81
2023-01-17T09:07:21.183Z,969.71
2023-01-17T09:08:21.162Z,969.75
2023-01-17T09:09:21.160Z,969.69
2023-01-17T09:10:21.208Z,969.70
2023-01-17T09:11:21.140Z,969.65
2023-01-17T09:12:21.145Z,969.71
2023-01-17T09:13:21.106Z,969.68
2023-01-17T09:14:21.121Z,969.74
2023-01-17T09:15:21.098Z,969.68
2023-01-17T09:16:21.139Z,969.68
2023-01-17T09:17:21.098Z,969.65
2023-01-17T09:18:21.072Z,969.69
2023-01-17T09:19:21.041Z,969.67
2023-01-17T09:20:21.116Z,969.66
2023-01-17T09:21:21.066Z,969.63
2023-01-17T09:22:21.008Z,969.75
2023-01-17T09:23:21.003Z,969.67
2023-01-17T09:24:20.988Z,969.70
2023-01-17T09:25:20.977Z,969.70
2023-01-17T09:26:20.975Z,969.70
2023-01-17T09:27:20.970Z,969.70
2023-01-17T09:28:20.969Z,969.73
2023-01-17T09:29:20.928Z,969.75
2023-01-17T09:30:21.002Z,969.78
2023-01-17T09:31:20.939Z,969.79
2023-01-17T09:32:20.917Z,969.77
2023-01-17T09:33:20.936Z,969.82
2023-01-17T09:34:20.893Z,969.84
2023-01-17T09:35:20.875Z,969.89
2023-01-17T09:36:20.856Z,969.88
2023-01-17T09:37:20.846Z,969.88
2023-01-17T09:38:20.852Z,969.86
2023-01-17T09:39:20.889Z,969.89
2023-01-17T09:40:20.893Z,969.83
2023-01-17T09:41:20.785Z,969.95
2023-01-17T09:42:20.825Z,969.94
2023-01-17T09:43:20.767Z,969.96
2023-01-17T09:44:20.909Z,969.96
2023-01-17T09:45:20.743Z,970.01
2023-01-17T09:46:20.738Z,969.98
2023-01-17T09:47:20.803Z,970.00
2023-01-17T09:48:20.730Z,970.03
2023-01-17T09:49:20.701Z,970.02
2023-01-17T09:50:20.794Z,970.03
2023-01-17T09:51:20.675Z,970.06
2023-01-17T09:52:20.670Z,970.13
2023-01-17T09:53:20.689Z,970.10
2023-01-17T09:54:20.638Z,970.08
2023-01-17T09:55:20.668Z,970.07
2023-01-17T09:56:20.672Z,970.08
2023-01-17T09:57:20.632Z,970.13
2023-01-17T09:58:20.638Z,970.20
2023-01-17T09:59:20.601Z,970.19
2023-01-17T10:00:20.666Z,970.23
2023-01-17T10:01:20.811Z,970.23
2023-01-17T10:02:20.798Z,970.20
2023-01-17T10:03:20.662Z,970.19
2023-01-17T10:04:20.611Z,970.14
2023-01-17T10:05:20.522Z,970.12
2023-01-17T10:06:20.516Z,970.11
2023-01-17T10:07:20.501Z,970.09
2023-01-17T10:08:20.505Z,970.14
2023-01-17T10:09:20.464Z,970.07
2023-01-17T10:10:20.546Z,970.08
2023-01-17T10:11:20.452Z,970.13
2023-01-17T10:12:20.446Z,970.10
2023-01-17T10:13:20.439Z,970.04
2023-01-17T10:14:20.428Z,970.07
2023-01-17T10:15:20.408Z,970.01
2023-01-17T10:16:20.428Z,970.04
2023-01-17T10:17:20.366Z,970.01
2023-01-17T10:18:29.515Z,970.05
2023-01-17T10:19:21.411Z,970.02
2023-01-17T10:20:20.373Z,970.04
2023-01-17T10:21:20.319Z,969.98
2023-01-17T10:22:20.318Z,970.07
2023-01-17T10:23:20.316Z,969.96
2023-01-17T10:24:20.321Z,970.03
2023-01-17T10:25:20.317Z,969.98
2023-01-17T10:26:20.309Z,970.00
2023-01-17T10:27:20.270Z,970.08
2023-01-17T10:28:20.267Z,970.03
2023-01-17T10:29:21.132Z,970.12
2023-01-17T10:30:20.303Z,970.06
2023-01-17T10:31:20.240Z,970.07
2023-01-17T10:32:20.209Z,970.04
2023-01-17T10:33:20.209Z,970.05
2023-01-17T10:34:20.181Z,970.07
2023-01-17T10:35:20.171Z,970.08
2023-01-17T10:36:20.205Z,970.05
2023-01-17T10:37:20.154Z,970.15
2023-01-17T10:38:20.143Z,970.08
2023-01-17T10:39:20.198Z,970.12
2023-01-17T10:40:20.124Z,970.05
2023-01-17T10:41:20.153Z,970.13
2023-01-17T10:42:20.146Z,970.04
2023-01-17T10:43:20.100Z,970.13
2023-01-17T10:44:20.070Z,970.13
2023-01-17T10:45:20.064Z,970.04
2023-01-17T10:46:20.128Z,970.10
2023-01-17T10:47:20.054Z,970.08
2023-01-17T10:48:22.428Z,970.06
2023-01-17T10:49:20.021Z,970.08
2023-01-17T10:50:20.003Z,970.02
2023-01-17T10:51:19.984Z,970.05
2023-01-17T10:52:19.991Z,970.07
2023-01-17T10:53:20.037Z,970.08
2023-01-17T10:54:20.045Z,970.06
2023-01-17T10:55:19.943Z,970.09
2023-01-17T10:56:19.933Z,970.07
2023-01-17T10:57:19.932Z,970.06
2023-01-17T10:58:19.930Z,970.08
2023-01-17T10:59:19.962Z,970.07
2023-01-17T11:00:19.892Z,970.08
2023-01-17T11:01:19.981Z,970.07
2023-01-17T11:02:20.088Z,970.06
2023-01-17T11:03:19.862Z,970.09
2023-01-17T11:04:19.846Z,970.07
2023-01-17T11:05:19.847Z,970.04
2023-01-17T11:06:19.826Z,970.10
2023-01-17T11:07:19.827Z,970.12
2023-01-17T11:08:19.813Z,970.15
2023-01-17T11:09:19.804Z,970.09
2023-01-17T11:10:19.795Z,970.14
2023-01-17T11:11:19.772Z,970.12
2023-01-17T11:12:19.756Z,970.12
2023-01-17T11:13:19.747Z,970.11
2023-01-17T11:14:19.751Z,970.08
2023-01-17T11:15:19.762Z,970.10
2023-01-17T11:16:19.746Z,970.11
2023-01-17T11:17:19.695Z,970.10
2023-01-17T11:18:19.684Z,970.12
2023-01-17T11:19:19.731Z,970.15
2023-01-17T11:20:19.665Z,970.15
2023-01-17T11:21:19.658Z,970.14
2023-01-17T11:22:19.665Z,970.16
2023-01-17T11:23:19.644Z,970.16
2023-01-17T11:24:19.619Z,970.12
2023-01-17T11:25:19.615Z,970.14
2023-01-17T11:26:19.599Z,970.09
2023-01-17T11:27:19.595Z,970.16
2023-01-17T11:28:19.668Z,970.15
2023-01-17T11:29:19.575Z,970.10
2023-01-17T11:30:19.570Z,970.09
2023-01-17T11:31:19.613Z,970.12
2023-01-17T11:32:19.533Z,970.14
2023-01-17T11:33:19.526Z,970.13
2023-01-17T11:34:19.515Z,970.02
2023-01-17T11:35:19.495Z,969.99
2023-01-17T11:36:19.538Z,969.97
2023-01-17T11:37:19.530Z,969.96
2023-01-17T11:38:19.483Z,970.02
2023-01-17T11:39:19.483Z,969.98
2023-01-17T11:40:19.456Z,969.95
2023-01-17T11:41:19.426Z,969.96
2023-01-17T11:42:19.420Z,970.02
2023-01-17T11:43:19.412Z,969.99
2023-01-17T11:44:19.420Z,969.94
2023-01-17T11:45:19.420Z,970.02
2023-01-17T11:46:19.508Z,969.95
2023-01-17T11:47:19.454Z,969.87
2023-01-17T11:48:19.357Z,969.82
2023-01-17T11:49:19.345Z,969.89
2023-01-17T11:50:19.332Z,969.88
2023-01-17T11:51:19.353Z,969.80
2023-01-17T11:52:19.311Z,969.81
2023-01-17T11:53:19.289Z,969.77
2023-01-17T11:54:19.357Z,969.76
2023-01-17T11:55:19.340Z,969.86
2023-01-17T11:56:19.270Z,969.85
2023-01-17T11:57:19.291Z,969.79
2023-01-17T11:58:19.242Z,969.75
2023-01-17T11:59:19.247Z,969.76
2023-01-17T12:00:19.219Z,969.78
2023-01-17T12:01:19.245Z,969.70
2023-01-17T12:02:19.201Z,969.71
2023-01-17T12:03:19.247Z,969.66
2023-01-17T12:04:19.171Z,969.70
2023-01-17T12:05:19.232Z,969.71
2023-01-17T12:06:19.139Z,969.65
2023-01-17T12:07:19.155Z,969.68
2023-01-17T12:08:19.171Z,969.71
2023-01-17T12:09:19.135Z,969.65
2023-01-17T12:10:19.103Z,969.60
2023-01-17T12:11:19.115Z,969.67
2023-01-17T12:12:19.081Z,969.65
2023-01-17T12:13:19.115Z,969.63
2023-01-17T12:14:19.065Z,969.61
2023-01-17T12:15:19.099Z,969.67
2023-01-17T12:16:19.087Z,969.64
2023-01-17T12:17:19.024Z,969.64
2023-01-17T12:18:19.036Z,969.62
2023-01-17T12:19:19.061Z,969.61
2023-01-17T12:20:19.256Z,969.53
2023-01-17T12:21:18.985Z,969.57
2023-01-17T12:22:18.971Z,969.56
2023-01-17T12:23:18.955Z,969.61
2023-01-17T12:24:18.964Z,969.62
2023-01-17T12:25:18.979Z,969.51
2023-01-17T12:26:18.926Z,969.56
2023-01-17T12:27:18.915Z,969.50
2023-01-17T12:28:18.892Z,969.54